sensor_id;sensor_type;location;lat;lon;timestamp;P1;durP1;ratioP1;P2;durP2;ratioP2
43998;SDS011;51319;52.162;5.302;2022-08-02T00:00:07;11.38;;;1.92;;
43998;SDS011;51319;52.162;5.302;2022-08-02T00:02:35;7.60;;;1.50;;
43998;SDS011;51319;52.162;5.302;2022-08-02T00:05:01;9.13;;;2.15;;
43998;SDS011;51319;52.162;5.302;2022-08-02T00:07:27;6.90;;;2.20;;
43998;SDS011;51319;52.162;5.302;2022-08-02T00:09:54;5.70;;;2.17;;
43998;SDS011;51319;52.162;5.302;2022-08-02T00:12:20;6.72;;;2.20;;
43998;SDS011;51319;52.162;5.302;2022-08-02T00:14:47;5.72;;;2.25;;
43998;SDS011;51319;52.162;5.302;2022-08-02T00:17:13;8.40;;;2.67;;
43998;SDS011;51319;52.162;5.302;2022-08-02T00:19:39;7.38;;;2.22;;
43998;SDS011;51319;52.162;5.302;2022-08-02T00:22:05;13.68;;;2.50;;
43998;SDS011;51319;52.162;5.302;2022-08-02T00:24:31;7.97;;;2.60;;
43998;SDS011;51319;52.162;5.302;2022-08-02T00:26:57;9.77;;;2.83;;
43998;SDS011;51319;52.162;5.302;2022-08-02T00:29:24;7.68;;;2.45;;
43998;SDS011;51319;52.162;5.302;2022-08-02T00:31:50;12.52;;;2.60;;
43998;SDS011;51319;52.162;5.302;2022-08-02T00:34:17;9.00;;;2.30;;
43998;SDS011;51319;52.162;5.302;2022-08-02T00:36:56;6.18;;;2.95;;
43998;SDS011;51319;52.162;5.302;2022-08-02T00:39:22;6.95;;;2.38;;
43998;SDS011;51319;52.162;5.302;2022-08-02T00:42:00;7.20;;;2.70;;
43998;SDS011;51319;52.162;5.302;2022-08-02T00:44:26;6.45;;;2.58;;
43998;SDS011;51319;52.162;5.302;2022-08-02T00:46:52;10.50;;;2.80;;
43998;SDS011;51319;52.162;5.302;2022-08-02T00:49:18;10.93;;;2.67;;
43998;SDS011;51319;52.162;5.302;2022-08-02T00:51:46;9.27;;;2.53;;
43998;SDS011;51319;52.162;5.302;2022-08-02T00:54:13;9.38;;;3.05;;
43998;SDS011;51319;52.162;5.302;2022-08-02T00:56:39;9.93;;;3.17;;
43998;SDS011;51319;52.162;5.302;2022-08-02T00:59:15;9.52;;;2.65;;
43998;SDS011;51319;52.162;5.302;2022-08-02T01:01:41;7.70;;;2.72;;
43998;SDS011;51319;52.162;5.302;2022-08-02T01:06:57;6.20;;;2.45;;
43998;SDS011;51319;52.162;5.302;2022-08-02T01:09:38;6.75;;;2.22;;
43998;SDS011;51319;52.162;5.302;2022-08-02T01:12:06;6.88;;;3.10;;
43998;SDS011;51319;52.162;5.302;2022-08-02T01:14:32;8.02;;;2.40;;
43998;SDS011;51319;52.162;5.302;2022-08-02T01:17:02;14.23;;;2.58;;
43998;SDS011;51319;52.162;5.302;2022-08-02T01:23:13;9.52;;;2.70;;
43998;SDS011;51319;52.162;5.302;2022-08-02T01:30:44;8.73;;;2.60;;
43998;SDS011;51319;52.162;5.302;2022-08-02T01:33:17;3.85;;;2.15;;
43998;SDS011;51319;52.162;5.302;2022-08-02T01:35:46;8.55;;;2.40;;
43998;SDS011;51319;52.162;5.302;2022-08-02T01:38:40;5.22;;;2.17;;
43998;SDS011;51319;52.162;5.302;2022-08-02T01:41:08;6.55;;;2.47;;
43998;SDS011;51319;52.162;5.302;2022-08-02T01:43:39;12.30;;;2.85;;
43998;SDS011;51319;52.162;5.302;2022-08-02T01:46:09;6.40;;;2.50;;
43998;SDS011;51319;52.162;5.302;2022-08-02T01:48:38;7.78;;;2.28;;
43998;SDS011;51319;52.162;5.302;2022-08-02T01:51:06;11.00;;;2.78;;
43998;SDS011;51319;52.162;5.302;2022-08-02T01:53:37;7.45;;;2.65;;
43998;SDS011;51319;52.162;5.302;2022-08-02T01:56:05;9.77;;;2.30;;
43998;SDS011;51319;52.162;5.302;2022-08-02T01:58:34;11.55;;;2.22;;
43998;SDS011;51319;52.162;5.302;2022-08-02T02:01:02;12.88;;;2.58;;
43998;SDS011;51319;52.162;5.302;2022-08-02T02:03:30;12.02;;;2.78;;
43998;SDS011;51319;52.162;5.302;2022-08-02T02:05:58;7.07;;;2.30;;
43998;SDS011;51319;52.162;5.302;2022-08-02T02:08:31;8.48;;;2.30;;
43998;SDS011;51319;52.162;5.302;2022-08-02T02:11:01;8.80;;;2.28;;
43998;SDS011;51319;52.162;5.302;2022-08-02T02:13:48;7.47;;;2.22;;
43998;SDS011;51319;52.162;5.302;2022-08-02T02:16:15;8.90;;;2.08;;
43998;SDS011;51319;52.162;5.302;2022-08-02T02:18:44;9.18;;;2.70;;
43998;SDS011;51319;52.162;5.302;2022-08-02T02:21:13;8.25;;;2.03;;
43998;SDS011;51319;52.162;5.302;2022-08-02T02:23:40;9.35;;;2.13;;
43998;SDS011;51319;52.162;5.302;2022-08-02T02:26:08;5.90;;;2.78;;
43998;SDS011;51319;52.162;5.302;2022-08-02T02:28:38;11.20;;;2.10;;
43998;SDS011;51319;52.162;5.302;2022-08-02T02:31:06;11.27;;;2.00;;
43998;SDS011;51319;52.162;5.302;2022-08-02T02:33:41;7.40;;;2.30;;
43998;SDS011;51319;52.162;5.302;2022-08-02T02:36:14;7.05;;;3.05;;
43998;SDS011;51319;52.162;5.302;2022-08-02T02:38:42;5.20;;;2.08;;
43998;SDS011;51319;52.162;5.302;2022-08-02T02:41:09;5.50;;;1.90;;
43998;SDS011;51319;52.162;5.302;2022-08-02T02:43:38;8.20;;;2.00;;
43998;SDS011;51319;52.162;5.302;2022-08-02T02:46:06;5.18;;;1.75;;
43998;SDS011;51319;52.162;5.302;2022-08-02T02:48:35;7.45;;;2.53;;
43998;SDS011;51319;52.162;5.302;2022-08-02T02:51:05;8.70;;;2.00;;
43998;SDS011;51319;52.162;5.302;2022-08-02T02:53:39;4.18;;;1.48;;
43998;SDS011;51319;52.162;5.302;2022-08-02T02:56:26;7.40;;;1.70;;
43998;SDS011;51319;52.162;5.302;2022-08-02T02:58:53;5.07;;;1.88;;
43998;SDS011;51319;52.162;5.302;2022-08-02T03:01:20;5.63;;;1.88;;
43998;SDS011;51319;52.162;5.302;2022-08-02T03:04:13;7.45;;;2.00;;
43998;SDS011;51319;52.162;5.302;2022-08-02T03:06:40;7.20;;;2.13;;
43998;SDS011;51319;52.162;5.302;2022-08-02T03:09:07;6.13;;;1.80;;
43998;SDS011;51319;52.162;5.302;2022-08-02T03:11:36;8.10;;;2.15;;
43998;SDS011;51319;52.162;5.302;2022-08-02T03:14:04;6.10;;;2.00;;
43998;SDS011;51319;52.162;5.302;2022-08-02T03:16:33;8.68;;;2.33;;
43998;SDS011;51319;52.162;5.302;2022-08-02T03:19:08;11.25;;;2.25;;
43998;SDS011;51319;52.162;5.302;2022-08-02T03:21:34;8.32;;;2.20;;
43998;SDS011;51319;52.162;5.302;2022-08-02T03:24:00;4.97;;;1.55;;
43998;SDS011;51319;52.162;5.302;2022-08-02T03:26:26;9.10;;;2.20;;
43998;SDS011;51319;52.162;5.302;2022-08-02T03:28:52;7.93;;;1.73;;
43998;SDS011;51319;52.162;5.302;2022-08-02T03:31:18;8.05;;;1.95;;
43998;SDS011;51319;52.162;5.302;2022-08-02T03:33:44;7.03;;;1.65;;
43998;SDS011;51319;52.162;5.302;2022-08-02T03:36:13;5.35;;;2.03;;
43998;SDS011;51319;52.162;5.302;2022-08-02T03:38:42;6.00;;;1.80;;
43998;SDS011;51319;52.162;5.302;2022-08-02T03:41:10;8.32;;;1.70;;
43998;SDS011;51319;52.162;5.302;2022-08-02T03:43:40;4.65;;;1.85;;
43998;SDS011;51319;52.162;5.302;2022-08-02T03:46:08;14.95;;;1.80;;
43998;SDS011;51319;52.162;5.302;2022-08-02T03:48:37;6.32;;;1.80;;
43998;SDS011;51319;52.162;5.302;2022-08-02T03:51:04;6.50;;;1.95;;
43998;SDS011;51319;52.162;5.302;2022-08-02T03:53:31;8.40;;;1.80;;
43998;SDS011;51319;52.162;5.302;2022-08-02T03:55:58;6.25;;;1.83;;
43998;SDS011;51319;52.162;5.302;2022-08-02T03:58:25;5.63;;;1.80;;
43998;SDS011;51319;52.162;5.302;2022-08-02T04:00:52;11.07;;;1.60;;
43998;SDS011;51319;52.162;5.302;2022-08-02T04:03:21;6.20;;;1.63;;
43998;SDS011;51319;52.162;5.302;2022-08-02T04:05:48;11.45;;;2.05;;
43998;SDS011;51319;52.162;5.302;2022-08-02T04:11:03;5.13;;;1.70;;
43998;SDS011;51319;52.162;5.302;2022-08-02T04:13:47;9.00;;;1.80;;
43998;SDS011;51319;52.162;5.302;2022-08-02T04:16:17;5.43;;;1.75;;
43998;SDS011;51319;52.162;5.302;2022-08-02T04:18:50;4.63;;;1.60;;
43998;SDS011;51319;52.162;5.302;2022-08-02T04:21:20;8.55;;;1.60;;
43998;SDS011;51319;52.162;5.302;2022-08-02T04:24:11;6.30;;;2.13;;
43998;SDS011;51319;52.162;5.302;2022-08-02T04:26:44;12.05;;;2.83;;
43998;SDS011;51319;52.162;5.302;2022-08-02T04:29:14;5.20;;;1.50;;
43998;SDS011;51319;52.162;5.302;2022-08-02T04:31:43;5.28;;;1.98;;
43998;SDS011;51319;52.162;5.302;2022-08-02T04:34:09;6.85;;;1.77;;
43998;SDS011;51319;52.162;5.302;2022-08-02T04:36:40;6.65;;;1.83;;
43998;SDS011;51319;52.162;5.302;2022-08-02T04:39:07;6.30;;;2.10;;
43998;SDS011;51319;52.162;5.302;2022-08-02T04:41:40;4.22;;;1.55;;
43998;SDS011;51319;52.162;5.302;2022-08-02T04:44:09;4.90;;;1.52;;
43998;SDS011;51319;52.162;5.302;2022-08-02T04:46:36;6.20;;;1.77;;
43998;SDS011;51319;52.162;5.302;2022-08-02T04:49:03;5.20;;;1.60;;
43998;SDS011;51319;52.162;5.302;2022-08-02T04:51:33;6.13;;;1.60;;
43998;SDS011;51319;52.162;5.302;2022-08-02T04:54:04;5.60;;;1.70;;
43998;SDS011;51319;52.162;5.302;2022-08-02T04:56:35;4.88;;;1.58;;
43998;SDS011;51319;52.162;5.302;2022-08-02T04:59:02;7.90;;;1.75;;
43998;SDS011;51319;52.162;5.302;2022-08-02T05:01:28;5.95;;;1.70;;
43998;SDS011;51319;52.162;5.302;2022-08-02T05:03:54;7.95;;;1.90;;
43998;SDS011;51319;52.162;5.302;2022-08-02T05:06:20;7.40;;;2.28;;
43998;SDS011;51319;52.162;5.302;2022-08-02T05:08:47;8.18;;;1.92;;
43998;SDS011;51319;52.162;5.302;2022-08-02T05:11:19;8.43;;;1.92;;
43998;SDS011;51319;52.162;5.302;2022-08-02T05:14:01;6.03;;;2.00;;
43998;SDS011;51319;52.162;5.302;2022-08-02T05:16:28;4.57;;;1.73;;
43998;SDS011;51319;52.162;5.302;2022-08-02T05:18:56;11.35;;;2.80;;
43998;SDS011;51319;52.162;5.302;2022-08-02T05:21:27;9.48;;;2.10;;
43998;SDS011;51319;52.162;5.302;2022-08-02T05:23:53;3.90;;;1.83;;
43998;SDS011;51319;52.162;5.302;2022-08-02T05:26:19;8.98;;;2.13;;
43998;SDS011;51319;52.162;5.302;2022-08-02T05:28:45;5.32;;;1.95;;
43998;SDS011;51319;52.162;5.302;2022-08-02T05:31:12;9.63;;;2.33;;
43998;SDS011;51319;52.162;5.302;2022-08-02T05:33:39;8.05;;;1.92;;
43998;SDS011;51319;52.162;5.302;2022-08-02T05:36:05;6.45;;;1.60;;
43998;SDS011;51319;52.162;5.302;2022-08-02T05:38:31;12.30;;;2.38;;
43998;SDS011;51319;52.162;5.302;2022-08-02T05:41:02;7.50;;;2.25;;
43998;SDS011;51319;52.162;5.302;2022-08-02T05:43:28;5.80;;;1.90;;
43998;SDS011;51319;52.162;5.302;2022-08-02T05:45:54;5.32;;;1.50;;
43998;SDS011;51319;52.162;5.302;2022-08-02T05:48:21;9.13;;;2.10;;
43998;SDS011;51319;52.162;5.302;2022-08-02T05:50:48;6.88;;;1.90;;
43998;SDS011;51319;52.162;5.302;2022-08-02T05:53:23;7.10;;;1.90;;
43998;SDS011;51319;52.162;5.302;2022-08-02T05:55:52;10.38;;;3.35;;
43998;SDS011;51319;52.162;5.302;2022-08-02T05:58:55;6.18;;;2.40;;
43998;SDS011;51319;52.162;5.302;2022-08-02T06:06:55;6.78;;;1.90;;
43998;SDS011;51319;52.162;5.302;2022-08-02T06:09:27;8.10;;;2.50;;
43998;SDS011;51319;52.162;5.302;2022-08-02T06:11:55;6.82;;;2.78;;
43998;SDS011;51319;52.162;5.302;2022-08-02T06:14:29;9.05;;;2.50;;
43998;SDS011;51319;52.162;5.302;2022-08-02T06:16:57;13.77;;;2.47;;
43998;SDS011;51319;52.162;5.302;2022-08-02T06:19:28;7.10;;;2.33;;
43998;SDS011;51319;52.162;5.302;2022-08-02T06:22:12;5.97;;;2.17;;
43998;SDS011;51319;52.162;5.302;2022-08-02T06:25:00;5.78;;;2.92;;
43998;SDS011;51319;52.162;5.302;2022-08-02T06:27:28;9.45;;;3.65;;
43998;SDS011;51319;52.162;5.302;2022-08-02T06:29:55;11.98;;;3.00;;
43998;SDS011;51319;52.162;5.302;2022-08-02T06:32:22;13.73;;;3.35;;
43998;SDS011;51319;52.162;5.302;2022-08-02T06:34:50;7.93;;;2.42;;
43998;SDS011;51319;52.162;5.302;2022-08-02T06:40:03;9.15;;;2.85;;
43998;SDS011;51319;52.162;5.302;2022-08-02T06:42:36;8.80;;;3.15;;
43998;SDS011;51319;52.162;5.302;2022-08-02T06:45:08;12.40;;;3.30;;
43998;SDS011;51319;52.162;5.302;2022-08-02T06:47:34;9.55;;;3.45;;
43998;SDS011;51319;52.162;5.302;2022-08-02T06:50:01;14.32;;;4.25;;
43998;SDS011;51319;52.162;5.302;2022-08-02T06:52:28;7.32;;;3.28;;
43998;SDS011;51319;52.162;5.302;2022-08-02T06:54:59;7.90;;;3.22;;
43998;SDS011;51319;52.162;5.302;2022-08-02T06:57:28;9.20;;;3.58;;
43998;SDS011;51319;52.162;5.302;2022-08-02T06:59:55;7.68;;;3.28;;
43998;SDS011;51319;52.162;5.302;2022-08-02T07:06:13;5.95;;;3.50;;
43998;SDS011;51319;52.162;5.302;2022-08-02T07:08:40;10.93;;;3.80;;
43998;SDS011;51319;52.162;5.302;2022-08-02T07:17:22;8.73;;;3.38;;
43998;SDS011;51319;52.162;5.302;2022-08-02T07:19:49;7.25;;;3.88;;
43998;SDS011;51319;52.162;5.302;2022-08-02T07:22:15;9.43;;;3.72;;
43998;SDS011;51319;52.162;5.302;2022-08-02T07:24:43;9.25;;;4.15;;
43998;SDS011;51319;52.162;5.302;2022-08-02T07:37:23;8.93;;;4.70;;
43998;SDS011;51319;52.162;5.302;2022-08-02T07:47:14;10.07;;;5.15;;
43998;SDS011;51319;52.162;5.302;2022-08-02T07:49:40;8.40;;;5.13;;
43998;SDS011;51319;52.162;5.302;2022-08-02T07:52:07;9.27;;;5.85;;
43998;SDS011;51319;52.162;5.302;2022-08-02T07:54:52;10.30;;;5.30;;
43998;SDS011;51319;52.162;5.302;2022-08-02T07:57:19;11.30;;;5.88;;
43998;SDS011;51319;52.162;5.302;2022-08-02T07:59:45;9.23;;;5.40;;
43998;SDS011;51319;52.162;5.302;2022-08-02T08:02:13;11.18;;;5.95;;
43998;SDS011;51319;52.162;5.302;2022-08-02T08:04:39;14.57;;;6.38;;
43998;SDS011;51319;52.162;5.302;2022-08-02T08:07:06;12.30;;;5.75;;
43998;SDS011;51319;52.162;5.302;2022-08-02T08:09:37;13.00;;;6.88;;
43998;SDS011;51319;52.162;5.302;2022-08-02T08:12:08;10.40;;;6.32;;
43998;SDS011;51319;52.162;5.302;2022-08-02T08:14:43;15.02;;;6.45;;
43998;SDS011;51319;52.162;5.302;2022-08-02T08:17:12;14.90;;;6.07;;
43998;SDS011;51319;52.162;5.302;2022-08-02T08:34:26;6.68;;;3.75;;
43998;SDS011;51319;52.162;5.302;2022-08-02T08:36:56;3.97;;;2.88;;
43998;SDS011;51319;52.162;5.302;2022-08-02T08:39:22;4.07;;;2.80;;
43998;SDS011;51319;52.162;5.302;2022-08-02T08:41:48;4.95;;;2.90;;
43998;SDS011;51319;52.162;5.302;2022-08-02T09:02:25;3.50;;;1.98;;
43998;SDS011;51319;52.162;5.302;2022-08-02T09:04:55;3.63;;;2.10;;
43998;SDS011;51319;52.162;5.302;2022-08-02T09:07:27;2.78;;;2.30;;
43998;SDS011;51319;52.162;5.302;2022-08-02T09:17:55;2.45;;;2.00;;
43998;SDS011;51319;52.162;5.302;2022-08-02T09:20:21;4.53;;;2.00;;
43998;SDS011;51319;52.162;5.302;2022-08-02T09:23:04;5.97;;;1.80;;
43998;SDS011;51319;52.162;5.302;2022-08-02T09:25:36;2.40;;;2.20;;
43998;SDS011;51319;52.162;5.302;2022-08-02T09:28:04;5.60;;;2.72;;
43998;SDS011;51319;52.162;5.302;2022-08-02T09:30:31;4.32;;;2.55;;
43998;SDS011;51319;52.162;5.302;2022-08-02T09:33:09;6.75;;;2.63;;
43998;SDS011;51319;52.162;5.302;2022-08-02T09:35:39;7.70;;;3.22;;
43998;SDS011;51319;52.162;5.302;2022-08-02T09:38:25;5.25;;;3.58;;
43998;SDS011;51319;52.162;5.302;2022-08-02T09:40:55;6.00;;;3.85;;
43998;SDS011;51319;52.162;5.302;2022-08-02T09:43:43;7.22;;;4.20;;
43998;SDS011;51319;52.162;5.302;2022-08-02T09:52:59;6.68;;;5.05;;
43998;SDS011;51319;52.162;5.302;2022-08-02T09:56:09;8.60;;;4.93;;
43998;SDS011;51319;52.162;5.302;2022-08-02T10:11:21;7.65;;;5.22;;
43998;SDS011;51319;52.162;5.302;2022-08-02T10:13:49;8.13;;;4.57;;
43998;SDS011;51319;52.162;5.302;2022-08-02T10:34:08;6.78;;;4.47;;
43998;SDS011;51319;52.162;5.302;2022-08-02T10:42:03;7.22;;;3.78;;
43998;SDS011;51319;52.162;5.302;2022-08-02T10:44:30;4.85;;;3.33;;
43998;SDS011;51319;52.162;5.302;2022-08-02T10:49:54;2.90;;;2.55;;
43998;SDS011;51319;52.162;5.302;2022-08-02T10:52:25;4.75;;;2.80;;
43998;SDS011;51319;52.162;5.302;2022-08-02T10:54:57;5.28;;;1.98;;
43998;SDS011;51319;52.162;5.302;2022-08-02T10:57:27;3.50;;;2.00;;
43998;SDS011;51319;52.162;5.302;2022-08-02T11:00:09;2.60;;;2.40;;
43998;SDS011;51319;52.162;5.302;2022-08-02T11:02:51;3.65;;;2.25;;
43998;SDS011;51319;52.162;5.302;2022-08-02T11:05:30;3.97;;;1.60;;
43998;SDS011;51319;52.162;5.302;2022-08-02T11:08:21;7.78;;;2.05;;
43998;SDS011;51319;52.162;5.302;2022-08-02T11:10:49;3.83;;;1.63;;
43998;SDS011;51319;52.162;5.302;2022-08-02T11:13:16;4.03;;;2.05;;
43998;SDS011;51319;52.162;5.302;2022-08-02T11:21:23;5.65;;;1.77;;
43998;SDS011;51319;52.162;5.302;2022-08-02T11:23:51;5.57;;;1.73;;
43998;SDS011;51319;52.162;5.302;2022-08-02T11:28:59;2.83;;;1.60;;
43998;SDS011;51319;52.162;5.302;2022-08-02T11:31:27;4.63;;;1.30;;
43998;SDS011;51319;52.162;5.302;2022-08-02T11:34:03;5.60;;;1.08;;
43998;SDS011;51319;52.162;5.302;2022-08-02T11:36:48;3.92;;;1.42;;
43998;SDS011;51319;52.162;5.302;2022-08-02T11:39:17;3.45;;;0.90;;
43998;SDS011;51319;52.162;5.302;2022-08-02T11:41:49;1.77;;;0.83;;
43998;SDS011;51319;52.162;5.302;2022-08-02T11:44:15;3.30;;;1.40;;
43998;SDS011;51319;52.162;5.302;2022-08-02T11:46:42;2.72;;;0.90;;
43998;SDS011;51319;52.162;5.302;2022-08-02T11:49:15;4.88;;;1.05;;
43998;SDS011;51319;52.162;5.302;2022-08-02T11:51:53;2.45;;;1.00;;
43998;SDS011;51319;52.162;5.302;2022-08-02T11:54:28;1.90;;;1.60;;
43998;SDS011;51319;52.162;5.302;2022-08-02T11:57:07;2.70;;;1.20;;
43998;SDS011;51319;52.162;5.302;2022-08-02T11:59:47;1.05;;;0.90;;
43998;SDS011;51319;52.162;5.302;2022-08-02T12:02:16;2.28;;;1.00;;
43998;SDS011;51319;52.162;5.302;2022-08-02T12:04:50;1.75;;;1.00;;
43998;SDS011;51319;52.162;5.302;2022-08-02T12:07:31;2.47;;;1.00;;
43998;SDS011;51319;52.162;5.302;2022-08-02T12:10:11;4.50;;;1.20;;
43998;SDS011;51319;52.162;5.302;2022-08-02T12:12:48;4.18;;;0.88;;
43998;SDS011;51319;52.162;5.302;2022-08-02T12:15:36;4.85;;;0.82;;
43998;SDS011;51319;52.162;5.302;2022-08-02T12:18:09;5.57;;;1.15;;
43998;SDS011;51319;52.162;5.302;2022-08-02T12:24:59;2.00;;;1.13;;
43998;SDS011;51319;52.162;5.302;2022-08-02T12:35:18;6.47;;;1.20;;
43998;SDS011;51319;52.162;5.302;2022-08-02T12:37:52;3.22;;;1.08;;
43998;SDS011;51319;52.162;5.302;2022-08-02T12:42:55;4.00;;;1.10;;
43998;SDS011;51319;52.162;5.302;2022-08-02T12:45:51;4.18;;;1.10;;
43998;SDS011;51319;52.162;5.302;2022-08-02T12:48:32;3.80;;;1.55;;
43998;SDS011;51319;52.162;5.302;2022-08-02T12:54:10;4.93;;;1.42;;
43998;SDS011;51319;52.162;5.302;2022-08-02T12:56:56;3.72;;;1.35;;
43998;SDS011;51319;52.162;5.302;2022-08-02T12:59:36;3.53;;;1.20;;
43998;SDS011;51319;52.162;5.302;2022-08-02T13:02:05;2.40;;;1.10;;
43998;SDS011;51319;52.162;5.302;2022-08-02T13:04:36;9.00;;;2.17;;
43998;SDS011;51319;52.162;5.302;2022-08-02T13:07:03;3.20;;;0.90;;
43998;SDS011;51319;52.162;5.302;2022-08-02T13:09:40;2.25;;;1.13;;
43998;SDS011;51319;52.162;5.302;2022-08-02T13:14:37;6.90;;;1.30;;
43998;SDS011;51319;52.162;5.302;2022-08-02T13:17:08;4.03;;;1.48;;
43998;SDS011;51319;52.162;5.302;2022-08-02T13:19:35;4.97;;;1.48;;
43998;SDS011;51319;52.162;5.302;2022-08-02T13:22:02;2.70;;;1.20;;
43998;SDS011;51319;52.162;5.302;2022-08-02T13:24:37;3.05;;;1.55;;
43998;SDS011;51319;52.162;5.302;2022-08-02T13:27:22;8.05;;;1.50;;
43998;SDS011;51319;52.162;5.302;2022-08-02T13:29:49;5.60;;;1.33;;
43998;SDS011;51319;52.162;5.302;2022-08-02T13:32:16;4.80;;;1.75;;
43998;SDS011;51319;52.162;5.302;2022-08-02T13:34:43;5.28;;;1.20;;
43998;SDS011;51319;52.162;5.302;2022-08-02T13:37:10;6.95;;;1.00;;
43998;SDS011;51319;52.162;5.302;2022-08-02T13:39:37;4.25;;;1.35;;
43998;SDS011;51319;52.162;5.302;2022-08-02T13:42:03;7.05;;;1.08;;
43998;SDS011;51319;52.162;5.302;2022-08-02T13:44:31;4.20;;;1.38;;
43998;SDS011;51319;52.162;5.302;2022-08-02T13:46:58;8.43;;;1.20;;
43998;SDS011;51319;52.162;5.302;2022-08-02T13:49:25;3.85;;;1.42;;
43998;SDS011;51319;52.162;5.302;2022-08-02T13:52:11;7.43;;;1.50;;
43998;SDS011;51319;52.162;5.302;2022-08-02T13:54:48;6.18;;;1.20;;
43998;SDS011;51319;52.162;5.302;2022-08-02T13:57:14;4.18;;;0.90;;
43998;SDS011;51319;52.162;5.302;2022-08-02T13:59:41;7.63;;;1.05;;
43998;SDS011;51319;52.162;5.302;2022-08-02T14:02:23;4.75;;;0.98;;
43998;SDS011;51319;52.162;5.302;2022-08-02T14:04:50;3.55;;;0.82;;
43998;SDS011;51319;52.162;5.302;2022-08-02T14:07:16;4.43;;;1.83;;
43998;SDS011;51319;52.162;5.302;2022-08-02T14:09:42;4.10;;;1.60;;
43998;SDS011;51319;52.162;5.302;2022-08-02T14:12:09;4.13;;;1.50;;
43998;SDS011;51319;52.162;5.302;2022-08-02T14:14:37;3.90;;;1.00;;
43998;SDS011;51319;52.162;5.302;2022-08-02T14:17:04;6.13;;;1.60;;
43998;SDS011;51319;52.162;5.302;2022-08-02T14:19:30;5.57;;;1.25;;
43998;SDS011;51319;52.162;5.302;2022-08-02T14:21:56;4.47;;;1.20;;
43998;SDS011;51319;52.162;5.302;2022-08-02T14:24:37;3.80;;;1.90;;
43998;SDS011;51319;52.162;5.302;2022-08-02T14:27:04;4.10;;;1.00;;
43998;SDS011;51319;52.162;5.302;2022-08-02T14:29:30;5.78;;;1.48;;
43998;SDS011;51319;52.162;5.302;2022-08-02T14:31:56;7.43;;;1.20;;
43998;SDS011;51319;52.162;5.302;2022-08-02T14:34:22;4.90;;;1.60;;
43998;SDS011;51319;52.162;5.302;2022-08-02T14:36:48;4.40;;;1.50;;
43998;SDS011;51319;52.162;5.302;2022-08-02T14:39:19;3.85;;;1.13;;
43998;SDS011;51319;52.162;5.302;2022-08-02T14:41:45;5.80;;;1.10;;
43998;SDS011;51319;52.162;5.302;2022-08-02T14:44:25;5.57;;;1.30;;
43998;SDS011;51319;52.162;5.302;2022-08-02T14:46:52;5.80;;;1.30;;
43998;SDS011;51319;52.162;5.302;2022-08-02T14:49:18;8.30;;;1.40;;
43998;SDS011;51319;52.162;5.302;2022-08-02T14:51:51;7.32;;;2.10;;
43998;SDS011;51319;52.162;5.302;2022-08-02T14:54:23;6.97;;;1.30;;
43998;SDS011;51319;52.162;5.302;2022-08-02T14:56:59;3.88;;;1.23;;
43998;SDS011;51319;52.162;5.302;2022-08-02T14:59:27;5.72;;;1.25;;
43998;SDS011;51319;52.162;5.302;2022-08-02T15:01:53;6.10;;;1.17;;
43998;SDS011;51319;52.162;5.302;2022-08-02T15:04:20;4.78;;;1.48;;
43998;SDS011;51319;52.162;5.302;2022-08-02T15:06:46;11.13;;;1.10;;
43998;SDS011;51319;52.162;5.302;2022-08-02T15:09:12;3.67;;;1.10;;
43998;SDS011;51319;52.162;5.302;2022-08-02T15:11:39;5.63;;;1.80;;
43998;SDS011;51319;52.162;5.302;2022-08-02T15:14:16;4.85;;;1.73;;
43998;SDS011;51319;52.162;5.302;2022-08-02T15:16:51;8.55;;;1.60;;
43998;SDS011;51319;52.162;5.302;2022-08-02T15:19:23;6.35;;;1.92;;
43998;SDS011;51319;52.162;5.302;2022-08-02T15:22:09;3.28;;;1.23;;
43998;SDS011;51319;52.162;5.302;2022-08-02T15:24:42;7.15;;;1.35;;
43998;SDS011;51319;52.162;5.302;2022-08-02T15:27:09;5.55;;;1.40;;
43998;SDS011;51319;52.162;5.302;2022-08-02T15:29:38;4.25;;;1.48;;
43998;SDS011;51319;52.162;5.302;2022-08-02T15:32:04;5.53;;;1.02;;
43998;SDS011;51319;52.162;5.302;2022-08-02T15:34:30;4.13;;;1.25;;
43998;SDS011;51319;52.162;5.302;2022-08-02T15:36:56;5.05;;;2.05;;
43998;SDS011;51319;52.162;5.302;2022-08-02T15:39:23;7.55;;;1.48;;
43998;SDS011;51319;52.162;5.302;2022-08-02T15:41:49;2.15;;;0.95;;
43998;SDS011;51319;52.162;5.302;2022-08-02T15:44:15;9.57;;;1.40;;
43998;SDS011;51319;52.162;5.302;2022-08-02T15:46:41;3.33;;;0.90;;
43998;SDS011;51319;52.162;5.302;2022-08-02T15:49:08;5.78;;;1.15;;
43998;SDS011;51319;52.162;5.302;2022-08-02T15:51:34;6.25;;;0.85;;
43998;SDS011;51319;52.162;5.302;2022-08-02T15:54:00;5.60;;;1.02;;
43998;SDS011;51319;52.162;5.302;2022-08-02T15:56:26;6.70;;;1.48;;
43998;SDS011;51319;52.162;5.302;2022-08-02T15:58:52;3.95;;;1.27;;
43998;SDS011;51319;52.162;5.302;2022-08-02T16:01:24;5.95;;;2.40;;
43998;SDS011;51319;52.162;5.302;2022-08-02T16:03:57;3.85;;;1.05;;
43998;SDS011;51319;52.162;5.302;2022-08-02T16:06:23;7.10;;;1.50;;
43998;SDS011;51319;52.162;5.302;2022-08-02T16:08:52;8.65;;;1.52;;
43998;SDS011;51319;52.162;5.302;2022-08-02T16:11:20;12.85;;;5.65;;
43998;SDS011;51319;52.162;5.302;2022-08-02T16:13:47;8.02;;;1.60;;
43998;SDS011;51319;52.162;5.302;2022-08-02T16:16:24;4.63;;;1.27;;
43998;SDS011;51319;52.162;5.302;2022-08-02T16:18:52;8.68;;;1.77;;
43998;SDS011;51319;52.162;5.302;2022-08-02T16:21:18;8.25;;;1.55;;
43998;SDS011;51319;52.162;5.302;2022-08-02T16:23:45;6.75;;;1.70;;
43998;SDS011;51319;52.162;5.302;2022-08-02T16:26:28;6.90;;;1.38;;
43998;SDS011;51319;52.162;5.302;2022-08-02T16:28:55;13.15;;;1.33;;
43998;SDS011;51319;52.162;5.302;2022-08-02T16:31:22;5.53;;;1.45;;
43998;SDS011;51319;52.162;5.302;2022-08-02T16:33:48;9.57;;;2.20;;
43998;SDS011;51319;52.162;5.302;2022-08-02T16:36:21;6.20;;;1.40;;
43998;SDS011;51319;52.162;5.302;2022-08-02T16:38:50;13.25;;;1.63;;
43998;SDS011;51319;52.162;5.302;2022-08-02T16:41:18;5.18;;;1.65;;
43998;SDS011;51319;52.162;5.302;2022-08-02T16:43:44;7.30;;;1.52;;
43998;SDS011;51319;52.162;5.302;2022-08-02T16:46:11;10.30;;;3.85;;
43998;SDS011;51319;52.162;5.302;2022-08-02T16:48:37;8.68;;;1.15;;
43998;SDS011;51319;52.162;5.302;2022-08-02T16:51:04;4.47;;;1.27;;
43998;SDS011;51319;52.162;5.302;2022-08-02T16:53:39;5.55;;;1.40;;
43998;SDS011;51319;52.162;5.302;2022-08-02T16:56:25;4.65;;;1.20;;
43998;SDS011;51319;52.162;5.302;2022-08-02T16:58:52;6.72;;;1.17;;
43998;SDS011;51319;52.162;5.302;2022-08-02T17:01:19;8.52;;;1.33;;
43998;SDS011;51319;52.162;5.302;2022-08-02T17:03:53;6.82;;;1.42;;
43998;SDS011;51319;52.162;5.302;2022-08-02T17:06:23;8.50;;;1.80;;
43998;SDS011;51319;52.162;5.302;2022-08-02T17:08:52;15.00;;;1.90;;
43998;SDS011;51319;52.162;5.302;2022-08-02T17:11:20;5.40;;;1.40;;
43998;SDS011;51319;52.162;5.302;2022-08-02T17:13:49;6.15;;;1.30;;
43998;SDS011;51319;52.162;5.302;2022-08-02T17:16:16;6.28;;;1.60;;
43998;SDS011;51319;52.162;5.302;2022-08-02T17:18:51;7.78;;;1.20;;
43998;SDS011;51319;52.162;5.302;2022-08-02T17:21:18;6.15;;;0.90;;
43998;SDS011;51319;52.162;5.302;2022-08-02T17:23:45;8.15;;;1.48;;
43998;SDS011;51319;52.162;5.302;2022-08-02T17:26:31;7.10;;;1.27;;
43998;SDS011;51319;52.162;5.302;2022-08-02T17:28:58;6.82;;;1.52;;
43998;SDS011;51319;52.162;5.302;2022-08-02T17:31:44;5.00;;;1.38;;
43998;SDS011;51319;52.162;5.302;2022-08-02T17:34:33;8.10;;;1.60;;
43998;SDS011;51319;52.162;5.302;2022-08-02T17:36:59;15.43;;;2.00;;
43998;SDS011;51319;52.162;5.302;2022-08-02T17:39:32;5.25;;;1.20;;
43998;SDS011;51319;52.162;5.302;2022-08-02T17:42:17;8.38;;;1.40;;
43998;SDS011;51319;52.162;5.302;2022-08-02T17:44:45;9.43;;;2.05;;
43998;SDS011;51319;52.162;5.302;2022-08-02T17:47:16;7.72;;;1.67;;
43998;SDS011;51319;52.162;5.302;2022-08-02T17:49:43;11.02;;;1.45;;